Fairchem Charger — V7RD4 — position and weather

sailwx.info

Track history (hours):
 
Tides and Currents Weather Stations Pressure Air Temp Water Temp Dewpoint Dewpoint Depression Visibility Wind Speed Wind Dir Waves Ship Positions

Fairchem Charger

Last reported at 2017-Nov-03 12:41 UTC. Time now 2017-Nov-19 12:36 UTC.
Position N 37°21' E 025°55'.
Warning: this ship's position is 15 days out of date.

Length 146 m; draft 9.3 m.

Type: Ship (hazmat cat B). MMSI: 538003481.

Date/timePositionNaut miles runAvg speedWind from/ knotsBaromVisibWave heightAir tempDewpointWater temp
2017-Nov-03 12:41N 37°21' E 025°55'212.9
2017-Nov-03 12:30N 37°23' E 025°53'713.3
2017-Nov-03 12:00N 37°29' E 025°49'813.0
2017-Nov-03 11:24N 37°36' E 025°44'1113.3
2017-Nov-03 10:34N 37°46' E 025°38'513.4
2017-Nov-03 10:12N 37°50' E 025°36'  
2017-Oct-24 23:47N 40°59' E 028°60'3 9.2
2017-Oct-24 23:28N 40°57' E 028°59'712.0
2017-Oct-24 22:52N 40°52' E 028°52'2 0.2
2017-Oct-24 13:23N 40°50' E 028°54'  
Track history (hours):
 
Tides and Currents Weather Stations Pressure Air Temp Water Temp Dewpoint Dewpoint Depression Visibility Wind Speed Wind Dir Waves Ship Positions

Fairchem Charger

Last reported at 2017-Nov-03 12:41 UTC. Time now 2017-Nov-19 12:36 UTC.
Position N 37°21' E 025°55'.
Warning: this ship's position is 15 days out of date.

Length 146 m; draft 9.3 m.

Type: Ship (hazmat cat B). MMSI: 538003481.

Date/timePositionNaut miles runAvg speedWind from/ knotsBaromVisibWave heightAir tempDewpointWater temp
2017-Nov-03 12:41N 37°21' E 025°55'212.9
2017-Nov-03 12:30N 37°23' E 025°53'713.3
2017-Nov-03 12:00N 37°29' E 025°49'813.0
2017-Nov-03 11:24N 37°36' E 025°44'1113.3
2017-Nov-03 10:34N 37°46' E 025°38'513.4
2017-Nov-03 10:12N 37°50' E 025°36'  
2017-Oct-24 23:47N 40°59' E 028°60'3 9.2
2017-Oct-24 23:28N 40°57' E 028°59'712.0
2017-Oct-24 22:52N 40°52' E 028°52'2 0.2
2017-Oct-24 13:23N 40°50' E 028°54'  

Dump ship's entire track history